Time;durP1;ratioP1;P1;durP2;ratioP2;P2;SDS_P1;SDS_P2;PMS_P1;PMS_P2;Temp;Humidity;BMP_temperature;BMP_pressure;BME280_temperature;BME280_humidity;BME280_pressure;Samples;Min_cycle;Max_cycle;Signal;HPM_P1;HPM_P2
2021/08/25 00:00:59;;;;;;;7.23;4.23;;;;;;;14.11;73.11;102660.16;5054112;28;19912;-35
2021/08/25 00:03:25;;;;;;;5.43;3.65;;;;;;;14.16;73.20;102671.25;5054087;28;20314;-35
2021/08/25 00:05:50;;;;;;;7.25;4.25;;;;;;;14.08;72.64;102655.13;5054430;28;20060;-35
2021/08/25 00:08:15;;;;;;;6.70;3.90;;;;;;;13.97;73.14;102653.06;5053481;28;20034;-35
2021/08/25 00:10:41;;;;;;;7.27;3.93;;;;;;;13.92;73.56;102658.28;5054485;28;20255;-35
2021/08/25 00:13:07;;;;;;;6.63;3.80;;;;;;;14.04;73.79;102667.47;5053807;28;20020;-35
2021/08/25 00:15:37;;;;;;;5.80;4.25;;;;;;;14.05;73.61;102666.41;5053821;28;20021;-35
2021/08/25 00:18:04;;;;;;;6.75;3.85;;;;;;;13.89;73.64;102662.25;5053629;28;20021;-35
2021/08/25 00:20:29;;;;;;;6.25;3.95;;;;;;;14.00;73.86;102658.06;5053725;28;20025;-35
2021/08/25 00:22:55;;;;;;;7.78;4.57;;;;;;;13.84;74.06;102648.44;5053636;28;20017;-35
2021/08/25 00:25:20;;;;;;;11.00;4.30;;;;;;;13.83;74.22;102654.09;5054113;28;20075;-35
2021/08/25 00:27:45;;;;;;;6.80;4.13;;;;;;;13.88;73.82;102655.13;5053494;28;20025;-35
2021/08/25 00:30:11;;;;;;;8.43;4.33;;;;;;;13.77;74.53;102644.06;5053443;28;20032;-35
2021/08/25 00:32:37;;;;;;;7.07;4.30;;;;;;;13.79;73.56;102631.09;5054022;28;20020;-35
2021/08/25 00:35:02;;;;;;;6.97;4.60;;;;;;;13.82;74.41;102642.38;5053369;28;20100;-35
2021/08/25 00:37:27;;;;;;;8.82;4.63;;;;;;;13.77;74.06;102635.91;5053722;28;20028;-35
2021/08/25 00:39:53;;;;;;;8.77;5.17;;;;;;;13.83;74.06;102643.22;5053497;28;20031;-35
2021/08/25 00:42:18;;;;;;;7.87;5.23;;;;;;;13.64;74.43;102640.28;5053493;28;20087;-35
2021/08/25 00:44:45;;;;;;;7.53;4.43;;;;;;;13.57;74.30;102625.84;5053266;28;20275;-35
2021/08/25 00:47:13;;;;;;;9.15;5.25;;;;;;;13.67;74.08;102643.63;5053598;28;20255;-35
2021/08/25 00:49:38;;;;;;;8.82;4.70;;;;;;;13.57;74.75;102641.31;5053654;28;20021;-35
2021/08/25 00:52:04;;;;;;;9.07;5.38;;;;;;;13.56;75.16;102642.34;5053425;28;20024;-35
2021/08/25 00:54:29;;;;;;;8.23;5.38;;;;;;;13.42;74.89;102629.78;5053080;28;20017;-35
2021/08/25 00:56:55;;;;;;;7.80;4.87;;;;;;;13.43;75.42;102639.63;5053029;28;20112;-35
2021/08/25 00:59:21;;;;;;;10.13;5.18;;;;;;;13.41;75.29;102639.81;5053118;28;20024;-35
2021/08/25 01:01:57;;;;;;;7.25;5.18;;;;;;;13.42;75.62;102636.06;5053204;28;20078;-35
2021/08/25 01:04:43;;;;;;;8.40;4.43;;;;;;;13.45;74.90;102632.09;5053085;28;20020;-35
2021/08/25 01:07:10;;;;;;;7.80;4.82;;;;;;;13.31;75.76;102633.94;5053290;28;20045;-35
2021/08/25 01:09:39;;;;;;;7.35;4.70;;;;;;;13.26;75.82;102625.56;5052724;28;20029;-35
2021/08/25 01:12:07;;;;;;;7.82;4.82;;;;;;;13.27;75.50;102621.81;5053407;28;20025;-35
2021/08/25 01:14:32;;;;;;;6.75;4.95;;;;;;;13.30;75.52;102626.84;5053374;28;20059;-35
2021/08/25 01:16:58;;;;;;;9.95;5.18;;;;;;;13.22;76.07;102627.84;5052795;28;20406;-35
2021/08/25 01:19:26;;;;;;;6.95;4.63;;;;;;;13.31;75.62;102625.78;5053334;28;20444;-35
2021/08/25 01:21:51;;;;;;;7.78;5.20;;;;;;;13.17;75.19;102622.16;5052689;28;20032;-35
2021/08/25 01:24:18;;;;;;;8.65;5.10;;;;;;;13.06;73.15;102622.78;5052998;28;20031;-35
2021/08/25 01:26:46;;;;;;;6.88;5.05;;;;;;;13.09;76.18;102622.38;5051589;28;20021;-35
2021/08/25 01:29:27;;;;;;;7.40;5.28;;;;;;;13.12;74.97;102619.22;5052626;28;20097;-35
2021/08/25 01:31:54;;;;;;;8.38;4.85;;;;;;;12.97;76.38;102613.97;5052807;28;20104;-35
2021/08/25 01:34:20;;;;;;;7.03;4.40;;;;;;;12.94;75.97;102610.84;5052614;28;20060;-35
2021/08/25 01:36:52;;;;;;;7.38;5.05;;;;;;;12.86;76.15;102600.97;5052560;28;20060;-35
2021/08/25 01:39:18;;;;;;;6.88;5.07;;;;;;;12.96;76.94;102609.59;5052504;28;20171;-35
2021/08/25 01:41:43;;;;;;;;;;;;;;;13.15;74.76;102597.94;5053323;28;20025;-35
2021/08/25 01:44:09;;;;;;;7.00;4.83;;;;;;;13.00;76.93;102600.00;5052587;28;19905;-35
2021/08/25 01:46:37;;;;;;;7.00;4.60;;;;;;;12.92;77.24;102600.16;5052084;28;20278;-35
2021/08/25 01:49:06;;;;;;;8.57;4.90;;;;;;;12.86;77.23;102601.81;5052418;28;20028;-35
2021/08/25 01:51:32;;;;;;;9.70;4.95;;;;;;;12.94;76.96;102597.28;5052302;28;20056;-35
2021/08/25 01:53:58;;;;;;;7.97;4.97;;;;;;;12.80;75.84;102580.09;5052396;28;20025;-35
2021/08/25 01:56:23;;;;;;;6.78;4.43;;;;;;;12.81;76.82;102598.03;5052058;28;20252;-35
2021/08/25 01:58:49;;;;;;;8.70;5.10;;;;;;;12.81;77.18;102603.47;5052288;28;20032;-35
2021/08/25 02:01:14;;;;;;;8.07;4.63;;;;;;;12.82;77.73;102602.44;5052081;28;20529;-35
2021/08/25 02:03:39;;;;;;;9.97;4.87;;;;;;;12.77;77.47;102588.63;5052183;28;20361;-35
2021/08/25 02:06:05;;;;;;;9.13;5.30;;;;;;;12.73;77.28;102595.50;5051994;28;20334;-35
2021/08/25 02:08:30;;;;;;;7.03;4.97;;;;;;;12.71;76.01;102590.28;5051903;28;20029;-35
2021/08/25 02:10:56;;;;;;;8.38;4.80;;;;;;;12.68;77.66;102581.69;5052678;28;20247;-35
2021/08/25 02:13:21;;;;;;;8.85;5.05;;;;;;;12.67;78.07;102585.47;5052049;28;20017;-35
2021/08/25 02:15:48;;;;;;;6.80;4.33;;;;;;;12.68;77.86;102582.53;5051013;28;20049;-35
2021/08/25 02:18:13;;;;;;;7.22;4.38;;;;;;;12.71;77.34;102584.03;5051975;28;20275;-35
2021/08/25 02:20:38;;;;;;;8.20;5.00;;;;;;;12.67;77.65;102593.59;5052418;28;20025;-35
2021/08/25 02:23:04;;;;;;;8.13;4.77;;;;;;;12.50;77.71;102566.00;5051961;28;20259;-35
2021/08/25 02:25:29;;;;;;;6.70;4.57;;;;;;;12.67;77.47;102590.88;5052294;28;20028;-35
2021/08/25 02:27:54;;;;;;;8.90;5.33;;;;;;;12.58;78.08;102582.91;5052133;28;20113;-35
2021/08/25 02:30:20;;;;;;;6.33;4.10;;;;;;;12.58;77.04;102588.34;5051049;28;20080;-35
2021/08/25 02:32:45;;;;;;;6.20;4.60;;;;;;;12.60;77.88;102589.00;5052628;28;20266;-35
2021/08/25 02:35:11;;;;;;;9.63;4.88;;;;;;;12.46;77.72;102573.69;5051932;28;20115;-35
2021/08/25 02:37:37;;;;;;;9.30;4.60;;;;;;;12.52;77.36;102575.59;5052257;28;20029;-35
2021/08/25 02:40:05;;;;;;;8.05;4.80;;;;;;;12.47;78.13;102578.06;5055563;28;20017;-35
2021/08/25 02:42:31;;;;;;;6.70;4.55;;;;;;;12.46;78.66;102581.00;5055501;28;20028;-35
2021/08/25 02:44:57;;;;;;;9.32;4.78;;;;;;;12.50;78.50;102574.97;5055595;28;20365;-35
2021/08/25 02:47:22;;;;;;;7.87;4.70;;;;;;;12.56;78.44;102576.03;5056277;28;20167;-35
2021/08/25 02:49:48;;;;;;;8.27;4.35;;;;;;;12.46;78.09;102570.97;5055001;28;20283;-35
2021/08/25 02:52:13;;;;;;;6.73;5.10;;;;;;;12.37;78.77;102566.75;5055866;28;20021;-35
2021/08/25 02:54:38;;;;;;;6.77;4.50;;;;;;;12.35;78.84;102552.56;5055125;28;20020;-35
2021/08/25 02:57:04;;;;;;;7.87;4.53;;;;;;;12.35;78.02;102563.41;5055373;28;20369;-35
2021/08/25 02:59:29;;;;;;;7.75;5.38;;;;;;;12.36;78.25;102543.38;5055190;28;20017;-35
2021/08/25 03:01:54;;;;;;;11.73;4.90;;;;;;;12.35;79.09;102553.41;5055260;28;20361;-35
2021/08/25 03:04:20;;;;;;;8.93;4.80;;;;;;;12.33;79.23;102554.63;5055381;28;20036;-35
2021/08/25 03:06:45;;;;;;;7.53;4.60;;;;;;;12.38;78.63;102552.13;5056036;28;20041;-35
2021/08/25 03:09:10;;;;;;;8.10;5.27;;;;;;;12.36;78.51;102555.06;5054755;28;20674;-35
2021/08/25 03:11:36;;;;;;;8.03;4.83;;;;;;;12.25;78.67;102536.66;5055358;28;20476;-35
2021/08/25 03:14:02;;;;;;;6.83;4.40;;;;;;;12.24;78.90;102539.53;5055036;28;20029;-35
2021/08/25 03:16:28;;;;;;;9.35;5.15;;;;;;;12.34;78.96;102548.16;5054966;28;20028;-35
2021/08/25 03:18:53;;;;;;;9.17;5.47;;;;;;;12.24;78.71;102556.66;5055158;28;20025;-35
2021/08/25 03:21:18;;;;;;;9.47;5.00;;;;;;;12.28;78.55;102549.78;5055120;28;20656;-35
2021/08/25 03:23:43;;;;;;;7.00;4.70;;;;;;;12.00;79.14;102516.47;5055103;28;20029;-35
2021/08/25 03:26:09;;;;;;;9.73;5.07;;;;;;;12.10;79.42;102550.34;5054846;28;20017;-35
2021/08/25 03:28:34;;;;;;;8.70;4.70;;;;;;;12.06;79.37;102543.63;5054457;28;20029;-35
2021/08/25 03:30:59;;;;;;;9.63;5.20;;;;;;;12.10;79.23;102536.78;5054887;28;20079;-35
2021/08/25 03:33:25;;;;;;;8.70;5.47;;;;;;;12.10;79.99;102546.75;5054674;28;20020;-35
2021/08/25 03:35:50;;;;;;;9.30;5.27;;;;;;;12.03;79.80;102544.03;5055159;28;20021;-35
2021/08/25 03:38:16;;;;;;;9.23;4.93;;;;;;;12.08;80.16;102544.25;5054308;28;20112;-35
2021/08/25 03:40:41;;;;;;;7.15;5.07;;;;;;;12.04;79.79;102521.28;5055218;28;20036;-35
2021/08/25 03:43:06;;;;;;;8.33;5.20;;;;;;;12.16;79.21;102534.31;5054167;28;20024;-35
2021/08/25 03:45:32;;;;;;;10.63;5.47;;;;;;;12.11;79.81;102526.78;5054177;28;20255;-35
2021/08/25 03:47:57;;;;;;;6.27;4.17;;;;;;;12.20;80.83;102522.84;5054573;28;20035;-35
2021/08/25 03:50:23;;;;;;;7.43;4.90;;;;;;;12.05;79.68;102512.16;5054354;28;20108;-35
2021/08/25 03:52:48;;;;;;;7.40;4.80;;;;;;;12.12;80.36;102514.88;5054696;28;20350;-35
2021/08/25 03:55:14;;;;;;;8.10;5.10;;;;;;;12.10;79.48;102501.53;5054245;28;20487;-35
2021/08/25 03:57:39;;;;;;;8.50;5.60;;;;;;;12.17;79.92;102520.53;5054633;28;20094;-35
2021/08/25 04:00:05;;;;;;;9.50;5.57;;;;;;;12.12;78.35;102520.31;5054212;28;20025;-35
2021/08/25 04:02:30;;;;;;;8.55;5.43;;;;;;;12.06;79.83;102511.09;5053752;28;20024;-35
2021/08/25 04:04:56;;;;;;;8.80;5.47;;;;;;;12.09;80.51;102510.69;5053780;28;20032;-35
2021/08/25 04:07:21;;;;;;;11.17;5.63;;;;;;;11.96;80.15;102497.06;5054575;28;20048;-35
2021/08/25 04:09:47;;;;;;;8.73;5.93;;;;;;;12.03;80.43;102511.50;5053955;28;20418;-35
2021/08/25 04:12:12;;;;;;;;;;;;;;;12.21;78.72;102515.56;5054019;28;20040;-35
2021/08/25 04:14:38;;;;;;;11.60;6.30;;;;;;;12.05;80.28;102511.28;5054095;28;19911;-35
2021/08/25 04:17:03;;;;;;;8.97;5.77;;;;;;;12.04;81.01;102513.16;5053637;28;20021;-35
2021/08/25 04:19:28;;;;;;;9.50;5.50;;;;;;;12.00;81.08;102501.03;5054034;28;20040;-35
2021/08/25 04:21:54;;;;;;;8.63;5.97;;;;;;;12.06;80.87;102511.09;5053968;28;20262;-35
2021/08/25 04:24:19;;;;;;;9.70;5.90;;;;;;;12.07;81.21;102512.78;5053766;28;20032;-35
2021/08/25 04:26:44;;;;;;;9.47;5.90;;;;;;;12.08;80.73;102502.75;5053709;28;20032;-35
2021/08/25 04:29:10;;;;;;;7.67;4.63;;;;;;;12.10;82.01;102515.09;5053299;28;20020;-35
2021/08/25 04:31:35;;;;;;;7.90;4.80;;;;;;;12.02;81.52;102507.09;5053748;28;20020;-35
2021/08/25 04:34:00;;;;;;;8.07;5.57;;;;;;;12.03;81.24;102505.22;5053481;28;20029;-35
2021/08/25 04:36:25;;;;;;;8.87;5.77;;;;;;;11.98;80.78;102510.41;5053742;28;20365;-35
2021/08/25 04:38:51;;;;;;;10.77;5.87;;;;;;;12.04;80.83;102504.19;5053356;28;20035;-35
2021/08/25 04:41:16;;;;;;;9.87;6.13;;;;;;;11.94;80.76;102514.56;5053522;28;20044;-35
2021/08/25 04:43:41;;;;;;;9.27;5.67;;;;;;;11.96;81.45;102520.63;5053963;28;20021;-35
2021/08/25 04:46:07;;;;;;;10.53;6.00;;;;;;;11.83;80.65;102522.22;5053392;28;20036;-35
2021/08/25 04:48:33;;;;;;;10.40;5.77;;;;;;;11.88;81.37;102515.38;5053195;28;20029;-35
2021/08/25 04:50:59;;;;;;;11.45;6.00;;;;;;;11.86;81.73;102504.72;5053779;28;20021;-35
2021/08/25 04:53:24;;;;;;;9.27;6.40;;;;;;;11.87;80.93;102511.81;5053208;28;20100;-35
2021/08/25 04:55:49;;;;;;;10.53;6.17;;;;;;;11.81;81.43;102507.16;5053235;28;20099;-35
2021/08/25 04:58:15;;;;;;;9.90;6.93;;;;;;;11.81;81.25;102510.72;5053400;28;20036;-35
2021/08/25 05:00:40;;;;;;;9.00;6.43;;;;;;;11.70;81.76;102499.56;5053719;28;20028;-35
2021/08/25 05:03:05;;;;;;;8.57;5.57;;;;;;;11.77;81.66;102505.88;5051986;28;20741;-35
2021/08/25 05:05:31;;;;;;;8.90;5.83;;;;;;;11.72;81.31;102498.34;5053243;28;20266;-36
2021/08/25 05:07:56;;;;;;;10.07;6.03;;;;;;;11.64;81.01;102501.19;5052716;28;20044;-35
2021/08/25 05:10:22;;;;;;;12.73;6.17;;;;;;;11.74;82.10;102498.16;5053422;28;20021;-35
2021/08/25 05:12:47;;;;;;;9.32;6.07;;;;;;;11.74;82.05;102506.28;5052901;28;20024;-35
2021/08/25 05:15:12;;;;;;;9.97;6.03;;;;;;;11.80;81.91;102508.19;5053511;28;20024;-35
2021/08/25 05:17:38;;;;;;;9.50;6.30;;;;;;;11.81;82.09;102496.31;5053339;28;20523;-35
2021/08/25 05:20:06;;;;;;;6.93;4.85;;;;;;;11.82;81.58;102488.03;5052428;28;20025;-35
2021/08/25 05:22:32;;;;;;;9.25;6.18;;;;;;;11.96;81.81;102498.94;5052592;28;20021;-35
2021/08/25 05:24:57;;;;;;;9.93;5.93;;;;;;;12.02;81.45;102495.44;5052354;28;20031;-35
2021/08/25 05:27:23;;;;;;;12.47;6.77;;;;;;;12.16;81.19;102501.75;5052712;28;20021;-35
2021/08/25 05:29:48;;;;;;;9.93;6.47;;;;;;;12.22;81.47;102501.78;5052197;28;20167;-35
2021/08/25 05:32:14;;;;;;;8.93;6.13;;;;;;;12.34;80.64;102505.59;5052848;28;20272;-34
2021/08/25 05:34:39;;;;;;;11.40;6.70;;;;;;;12.36;80.90;102505.41;5052635;28;20055;-34
2021/08/25 05:37:04;;;;;;;10.83;6.53;;;;;;;12.42;81.12;102501.03;5052736;28;20108;-34
2021/08/25 05:39:30;;;;;;;10.90;6.72;;;;;;;12.66;81.23;102505.09;5052558;28;20108;-35
2021/08/25 05:41:55;;;;;;;11.17;6.70;;;;;;;12.71;80.26;102502.59;5052470;28;20032;-34
2021/08/25 05:44:20;;;;;;;9.93;6.03;;;;;;;12.88;80.85;102503.88;5052918;28;20067;-35
2021/08/25 05:46:46;;;;;;;10.20;5.93;;;;;;;12.93;79.89;102501.38;5052151;28;20033;-34
2021/08/25 05:49:11;;;;;;;9.37;5.23;;;;;;;13.12;80.86;102500.56;5052356;28;20024;-34
2021/08/25 05:51:36;;;;;;;8.68;6.30;;;;;;;13.11;79.31;102498.06;5052055;28;20021;-35
2021/08/25 05:54:02;;;;;;;11.60;6.23;;;;;;;13.20;78.40;102495.97;5052130;28;20025;-35
2021/08/25 05:56:27;;;;;;;8.50;5.97;;;;;;;13.22;78.82;102494.75;5052722;28;20438;-35
2021/08/25 05:58:53;;;;;;;8.73;5.53;;;;;;;13.44;79.68;102494.56;5052546;28;20449;-35
2021/08/25 06:01:18;;;;;;;9.20;6.27;;;;;;;13.28;78.23;102477.63;5052696;28;20351;-35
2021/08/25 06:03:44;;;;;;;11.88;6.45;;;;;;;13.47;77.61;102488.69;5052239;28;20025;-35
2021/08/25 06:06:11;;;;;;;10.30;6.45;;;;;;;13.60;77.30;102491.41;5052718;28;20036;-35
2021/08/25 06:08:37;;;;;;;9.82;6.13;;;;;;;13.65;77.49;102484.28;5052132;28;20368;-35
2021/08/25 06:11:02;;;;;;;8.63;5.85;;;;;;;13.74;76.92;102487.59;5052201;28;20104;-35
2021/08/25 06:13:28;;;;;;;9.57;6.20;;;;;;;13.75;77.12;102483.00;5053968;28;20113;-35
2021/08/25 06:15:53;;;;;;;9.57;5.50;;;;;;;13.78;77.03;102480.69;5056115;28;20487;-35
2021/08/25 06:18:19;;;;;;;10.17;6.67;;;;;;;13.86;75.80;102491.38;5055737;28;20414;-35
2021/08/25 06:20:44;;;;;;;8.70;5.70;;;;;;;13.79;73.60;102479.66;5056290;28;20032;-35
2021/08/25 06:23:10;;;;;;;9.03;5.63;;;;;;;13.92;76.37;102473.34;5056055;28;20029;-35
2021/08/25 06:25:35;;;;;;;9.37;5.97;;;;;;;13.94;75.96;102490.28;5056077;28;20255;-35
2021/08/25 06:28:02;;;;;;;9.40;5.60;;;;;;;14.08;75.66;102494.63;5055889;28;20291;-35
2021/08/25 06:30:28;;;;;;;13.15;6.35;;;;;;;14.14;75.57;102498.38;5055967;28;20025;-35
2021/08/25 06:32:53;;;;;;;8.60;5.78;;;;;;;14.22;75.72;102492.72;5056025;28;20377;-35
2021/08/25 06:35:20;;;;;;;10.50;6.32;;;;;;;14.24;75.54;102497.94;5055850;28;20021;-35
2021/08/25 06:37:45;;;;;;;;;;;;;;;14.41;75.78;102504.56;5056172;28;20418;-35
2021/08/25 06:40:12;;;;;;;8.32;6.53;;;;;;;14.34;75.72;102503.75;5055667;28;20008;-35
2021/08/25 06:42:38;;;;;;;10.07;6.43;;;;;;;14.36;75.90;102502.50;5055705;28;20061;-35
2021/08/25 06:45:05;;;;;;;10.15;6.75;;;;;;;14.33;74.96;102500.19;5055916;28;20025;-35
2021/08/25 06:47:30;;;;;;;13.90;7.32;;;;;;;14.40;75.63;102508.34;5055889;28;20025;-35
2021/08/25 06:49:55;;;;;;;14.83;7.13;;;;;;;14.49;75.31;102506.22;5055242;28;20418;-35
2021/08/25 06:52:21;;;;;;;9.23;6.77;;;;;;;14.52;74.10;102500.34;5056117;28;20513;-35
2021/08/25 06:54:46;;;;;;;11.02;7.03;;;;;;;14.62;74.63;102506.16;5055575;28;20056;-35
2021/08/25 06:57:11;;;;;;;12.03;7.67;;;;;;;14.63;74.90;102510.53;5056140;28;20036;-35
2021/08/25 06:59:36;;;;;;;9.43;6.77;;;;;;;14.68;75.67;102506.13;5055201;28;20282;-35
2021/08/25 07:02:02;;;;;;;12.02;7.25;;;;;;;14.73;75.05;102507.34;5055710;28;20020;-35
2021/08/25 07:04:28;;;;;;;11.38;6.68;;;;;;;14.75;75.01;102508.81;5055210;28;20162;-35
2021/08/25 07:06:53;;;;;;;10.60;7.13;;;;;;;14.78;74.22;102494.75;5055465;28;20049;-35
2021/08/25 07:09:19;;;;;;;9.67;6.83;;;;;;;14.89;74.75;102502.25;5054933;28;20366;-35
2021/08/25 07:11:44;;;;;;;9.63;6.65;;;;;;;15.04;74.87;102510.09;5055254;28;20118;-35
2021/08/25 07:14:10;;;;;;;10.45;7.25;;;;;;;15.04;72.63;102512.81;5055103;28;20056;-35
2021/08/25 07:16:35;;;;;;;9.07;6.25;;;;;;;15.13;74.67;102516.13;5055778;28;20079;-35
2021/08/25 07:19:02;;;;;;;8.98;6.30;;;;;;;15.11;73.68;102505.44;5055367;28;20047;-35
2021/08/25 07:21:27;;;;;;;9.98;6.93;;;;;;;15.26;74.06;102510.56;5054695;28;20049;-35
2021/08/25 07:23:52;;;;;;;11.48;7.03;;;;;;;15.29;72.97;102509.28;5054934;28;20146;-35
2021/08/25 07:26:18;;;;;;;11.30;6.90;;;;;;;15.39;73.71;102510.44;5054012;28;20083;-35
2021/08/25 07:28:44;;;;;;;9.73;6.40;;;;;;;15.37;73.56;102496.22;5054977;28;20287;-35
2021/08/25 07:31:10;;;;;;;;;;;;;;;15.59;73.69;102513.00;5055685;28;20255;-36
2021/08/25 07:33:38;;;;;;;10.37;6.63;;;;;;;15.52;72.76;102495.88;5054778;28;19954;-35
2021/08/25 07:36:04;;;;;;;9.30;6.78;;;;;;;15.67;73.49;102504.56;5055388;28;20023;-35
2021/08/25 07:38:29;;;;;;;9.82;6.93;;;;;;;15.78;73.19;102503.00;5054404;28;20029;-35
2021/08/25 07:40:56;;;;;;;9.67;6.80;;;;;;;15.81;73.33;102496.22;5055074;28;20033;-35
2021/08/25 07:43:21;;;;;;;11.07;7.25;;;;;;;15.83;72.83;102496.88;5054492;28;20090;-35
2021/08/25 07:45:47;;;;;;;11.18;6.70;;;;;;;15.90;72.64;102492.16;5055123;28;20025;-35
2021/08/25 07:48:12;;;;;;;10.73;7.13;;;;;;;15.85;72.57;102479.19;5054349;28;20060;-35
2021/08/25 07:50:37;;;;;;;9.40;6.10;;;;;;;15.93;72.72;102475.34;5054773;28;20664;-35
2021/08/25 07:53:03;;;;;;;;;;;;;;;16.16;73.30;102485.59;5054809;28;20021;-35
2021/08/25 07:55:28;;;;;;;11.00;7.00;;;;;;;16.15;72.17;102484.75;5055328;28;20420;-35
2021/08/25 07:57:53;;;;;;;;;;;;;;;16.32;72.95;102484.94;5053350;28;20108;-35
2021/08/25 08:00:19;;;;;;;10.33;6.70;;;;;;;16.35;70.93;102483.66;5054919;28;19905;-35
2021/08/25 08:02:44;;;;;;;;;;;;;;;16.43;71.94;102486.06;5054660;28;20442;-35
2021/08/25 08:05:10;;;;;;;12.50;6.93;;;;;;;16.48;71.29;102488.94;5054766;28;19995;-35
2021/08/25 08:07:37;;;;;;;10.27;6.93;;;;;;;16.40;70.81;102453.78;5054509;28;20279;-35
2021/08/25 08:10:03;;;;;;;10.05;7.15;;;;;;;16.63;70.73;102472.13;5053744;28;20346;-35
2021/08/25 08:12:29;;;;;;;9.15;6.57;;;;;;;16.67;69.76;102473.34;5054426;28;20106;-35
2021/08/25 08:14:54;;;;;;;8.55;6.53;;;;;;;16.70;68.95;102461.97;5053758;28;20040;-35
2021/08/25 08:17:22;;;;;;;9.38;6.15;;;;;;;16.77;69.81;102453.69;5053939;28;20020;-35
2021/08/25 08:19:47;;;;;;;8.23;6.32;;;;;;;16.79;69.71;102438.75;5053616;28;20024;-35
2021/08/25 08:22:13;;;;;;;9.07;6.75;;;;;;;16.97;69.70;102463.22;5054752;28;20029;-35
2021/08/25 08:24:38;;;;;;;12.00;6.85;;;;;;;16.92;67.82;102456.81;5053911;28;20028;-35
2021/08/25 08:27:05;;;;;;;9.95;6.38;;;;;;;17.12;68.33;102457.31;5054367;28;20032;-35
2021/08/25 08:29:31;;;;;;;8.13;5.80;;;;;;;17.21;66.41;102461.38;5053614;28;20330;-35
2021/08/25 08:31:56;;;;;;;8.95;6.38;;;;;;;17.35;66.54;102464.72;5053935;28;20132;-35
2021/08/25 08:34:22;;;;;;;;;;;;;;;17.39;68.36;102457.72;5054115;28;20016;-36
2021/08/25 08:36:47;;;;;;;11.02;6.65;;;;;;;17.41;66.26;102455.56;5053383;28;20256;-35
2021/08/25 08:39:13;;;;;;;11.55;6.45;;;;;;;17.54;65.72;102453.66;5053204;28;20033;-35
2021/08/25 08:41:39;;;;;;;;;;;;;;;17.69;67.79;102456.75;5054243;28;20032;-35
2021/08/25 08:44:04;;;;;;;9.02;6.35;;;;;;;17.77;64.84;102452.84;5053775;28;19963;-35
2021/08/25 08:46:29;;;;;;;;;;;;;;;17.90;65.54;102452.56;5054592;28;20021;-35
2021/08/25 08:48:55;;;;;;;11.90;6.20;;;;;;;17.92;64.12;102450.44;5053356;28;19914;-35
2021/08/25 08:51:22;;;;;;;;;;;;;;;18.05;66.35;102450.16;5054168;28;20029;-35
2021/08/25 08:53:48;;;;;;;7.78;5.13;;;;;;;18.05;63.30;102449.31;5053339;28;19912;-36
2021/08/25 08:56:14;;;;;;;8.70;6.00;;;;;;;18.12;64.07;102439.91;5053709;28;20017;-36
2021/08/25 08:58:41;;;;;;;;;;;;;;;18.30;66.15;102444.38;5053550;28;20021;-35
2021/08/25 09:01:07;;;;;;;10.07;5.80;;;;;;;18.45;63.22;102452.06;5053800;28;19954;-35
2021/08/25 09:03:36;;;;;;;7.60;5.38;;;;;;;18.45;60.35;102450.16;5053125;28;20078;-35
2021/08/25 09:06:03;;;;;;;8.13;5.63;;;;;;;18.54;61.00;102447.81;5053602;28;20040;-35
2021/08/25 09:08:56;;;;;;;7.15;5.13;;;;;;;18.70;62.14;102452.56;5053584;28;20080;-35
2021/08/25 09:11:22;;;;;;;9.80;5.93;;;;;;;18.86;61.22;102456.41;5053887;28;20044;-37
2021/08/25 09:13:48;;;;;;;;;;;;;;;18.96;62.76;102456.56;5053199;28;20025;-35
2021/08/25 09:16:34;;;;;;;7.03;4.65;;;;;;;19.00;59.92;102449.53;5053538;28;19911;-35
2021/08/25 09:19:13;;;;;;;8.57;4.97;;;;;;;19.02;58.32;102450.09;5053082;28;20170;-35
2021/08/25 09:21:49;;;;;;;8.63;4.60;;;;;;;19.15;58.75;102442.63;5053385;28;20604;-35
2021/08/25 09:24:20;;;;;;;8.40;5.25;;;;;;;19.30;57.15;102448.34;5053377;28;20017;-35
2021/08/25 09:27:16;;;;;;;7.80;5.10;;;;;;;19.35;57.34;102444.84;5052893;28;20028;-35
2021/08/25 09:29:43;;;;;;;8.05;5.15;;;;;;;19.44;57.30;102429.63;5052400;28;20159;-35
2021/08/25 09:32:35;;;;;;;9.35;5.68;;;;;;;19.54;58.12;102433.34;5053061;28;20029;-36
2021/08/25 09:35:02;;;;;;;6.10;4.55;;;;;;;19.59;56.57;102429.03;5049235;28;20091;-35
2021/08/25 09:37:30;;;;;;;9.32;4.78;;;;;;;19.79;55.94;102427.41;5053010;28;20028;-35
2021/08/25 09:40:01;;;;;;;8.25;5.47;;;;;;;19.90;55.36;102422.88;5053001;28;20407;-36
2021/08/25 09:42:41;;;;;;;8.50;4.50;;;;;;;19.84;55.40;102418.41;5052808;28;20461;-36
2021/08/25 09:45:08;;;;;;;7.97;4.35;;;;;;;19.83;55.29;102418.69;5052730;28;20029;-35
2021/08/25 09:47:52;;;;;;;6.13;4.00;;;;;;;19.91;54.82;102404.47;5052588;28;20029;-35
2021/08/25 09:50:22;;;;;;;6.68;4.30;;;;;;;20.12;52.49;102420.13;5056788;28;20108;-35
2021/08/25 09:52:48;;;;;;;5.68;4.00;;;;;;;20.18;52.15;102413.59;5056894;28;20053;-35
2021/08/25 09:55:13;;;;;;;;;;;;;;;20.44;54.56;102408.38;5056991;28;20457;-36
2021/08/25 09:57:41;;;;;;;6.32;4.13;;;;;;;20.42;52.00;102413.31;5057028;28;19928;-36
2021/08/25 10:00:09;;;;;;;9.85;4.18;;;;;;;20.41;50.67;102393.25;5056291;28;20028;-35
2021/08/25 10:02:34;;;;;;;7.10;4.38;;;;;;;20.58;51.25;102402.22;5057030;28;20111;-35
2021/08/25 10:05:00;;;;;;;;;;;;;;;20.75;49.42;102396.63;5056948;28;20394;-36
2021/08/25 10:07:26;;;;;;;6.75;4.50;;;;;;;20.51;49.33;102384.31;5056329;28;19989;-35
2021/08/25 10:09:53;;;;;;;7.63;4.50;;;;;;;20.51;48.73;102395.31;5056343;28;20028;-35
2021/08/25 10:12:19;;;;;;;7.40;4.70;;;;;;;20.63;50.38;102376.72;5056737;28;20036;-36
2021/08/25 10:14:44;;;;;;;;;;;;;;;20.91;53.28;102385.75;5057317;28;20037;-36
2021/08/25 10:17:49;;;;;;;6.87;4.50;;;;;;;20.82;51.57;102380.72;5056606;28;20357;-35
2021/08/25 10:20:24;;;;;;;6.50;3.97;;;;;;;21.04;51.31;102377.06;5055911;28;20039;-36
2021/08/25 10:22:50;;;;;;;7.18;4.53;;;;;;;21.14;49.29;102377.13;5056719;28;20112;-36
2021/08/25 10:25:16;;;;;;;6.97;4.72;;;;;;;21.18;48.68;102381.00;5056304;28;20017;-36
2021/08/25 10:28:07;;;;;;;;;;;;;;;21.46;51.16;102374.28;5056518;28;20453;-35
2021/08/25 10:30:55;;;;;;;8.23;5.35;;;;;;;21.42;49.67;102372.34;5053341;28;20252;-35
2021/08/25 10:33:21;;;;;;;6.10;4.10;;;;;;;21.43;49.17;102376.78;5056146;28;20021;-36
2021/08/25 10:35:47;;;;;;;;;;;;;;;21.74;51.10;102364.78;5057203;28;20079;-36
2021/08/25 10:38:19;;;;;;;6.15;4.25;;;;;;;21.77;47.49;102367.03;5056629;28;19905;-35
2021/08/25 10:40:46;;;;;;;7.75;4.22;;;;;;;21.99;47.53;102357.72;5055706;28;20032;-36
2021/08/25 10:43:42;;;;;;;6.72;4.45;;;;;;;22.17;49.02;102360.00;5055964;28;20111;-36
2021/08/25 10:46:13;;;;;;;6.50;4.70;;;;;;;22.12;48.68;102361.91;5055783;28;20029;-35
2021/08/25 10:48:50;;;;;;;7.18;4.78;;;;;;;22.19;46.55;102348.69;5055566;28;20024;-35
2021/08/25 10:51:46;;;;;;;7.53;4.53;;;;;;;22.24;48.14;102360.56;5056246;28;20078;-36
2021/08/25 10:54:14;;;;;;;7.65;4.25;;;;;;;22.23;45.27;102355.31;4974883;28;20077;-35
2021/08/25 10:56:44;;;;;;;9.05;4.22;;;;;;;22.04;46.06;102363.25;4974507;28;20062;-36
2021/08/25 10:59:13;;;;;;;6.25;4.05;;;;;;;21.96;45.10;102359.09;4974785;28;20121;-36
2021/08/25 11:01:43;;;;;;;6.30;4.07;;;;;;;22.12;46.19;102362.75;4974827;28;20062;-36
2021/08/25 11:04:23;;;;;;;6.20;3.80;;;;;;;22.17;46.50;102337.97;4974995;28;20026;-36
2021/08/25 11:06:51;;;;;;;5.40;3.55;;;;;;;22.23;46.35;102328.59;4974622;28;20047;-36
2021/08/25 11:09:29;;;;;;;7.28;4.10;;;;;;;22.33;46.06;102331.34;4974755;28;20141;-36
2021/08/25 11:12:18;;;;;;;5.40;3.60;;;;;;;22.38;45.00;102335.22;4974636;28;20488;-36
2021/08/25 11:14:47;;;;;;;4.95;3.55;;;;;;;22.28;43.74;102333.28;4936119;29;20036;-36
2021/08/25 11:17:14;;;;;;;8.27;4.05;;;;;;;22.45;44.16;102310.97;4936114;29;20346;-35
2021/08/25 11:19:48;;;;;;;5.03;3.50;;;;;;;22.35;42.92;102320.91;4935896;29;20039;-36
2021/08/25 11:22:15;;;;;;;7.22;4.43;;;;;;;22.28;43.56;102316.75;4935683;29;20511;-36
2021/08/25 11:24:43;;;;;;;5.20;3.40;;;;;;;22.27;43.71;102307.66;4935501;29;20103;-36
2021/08/25 11:27:19;;;;;;;5.55;3.65;;;;;;;22.56;44.80;102276.78;4935646;29;20115;-36